createdAt,value
2019-04-30T00:00:06.242Z,27.70
2019-04-30T00:01:07.481Z,28.00
2019-04-30T00:02:05.794Z,29.60
2019-04-30T00:03:06.828Z,29.00
2019-04-30T00:04:06.107Z,28.10
2019-04-30T00:05:09.933Z,28.40
2019-04-30T00:06:07.509Z,28.30
2019-04-30T00:07:10.179Z,28.60
2019-04-30T00:08:06.858Z,28.40
2019-04-30T00:09:09.821Z,28.40
2019-04-30T00:10:07.225Z,27.40
2019-04-30T00:11:10.734Z,28.70
2019-04-30T00:12:07.601Z,29.30
2019-04-30T00:13:10.401Z,29.00
2019-04-30T00:14:07.969Z,26.70
2019-04-30T00:15:10.981Z,27.20
2019-04-30T00:16:08.348Z,28.90
2019-04-30T00:17:10.675Z,27.20
2019-04-30T00:18:08.719Z,27.20
2019-04-30T00:19:10.550Z,27.30
2019-04-30T00:20:09.082Z,28.20
2019-04-30T00:21:09.987Z,27.60
2019-04-30T00:22:09.449Z,26.90
2019-04-30T00:23:09.650Z,27.80
2019-04-30T00:24:10.394Z,27.20
2019-04-30T00:25:10.031Z,27.40
2019-04-30T00:26:10.592Z,28.90
2019-04-30T00:27:10.402Z,27.50
2019-04-30T00:28:10.587Z,26.50
2019-04-30T00:29:10.773Z,29.00
2019-04-30T00:30:10.980Z,28.10
2019-04-30T00:31:11.145Z,27.80
2019-04-30T00:32:11.332Z,29.00
2019-04-30T00:33:15.246Z,29.00
2019-04-30T00:34:11.702Z,28.00
2019-04-30T00:35:15.507Z,29.70
2019-04-30T00:36:12.076Z,29.50
2019-04-30T00:37:13.960Z,29.00
2019-04-30T00:38:12.446Z,28.80
2019-04-30T00:39:13.228Z,29.20
2019-04-30T00:40:12.818Z,28.50
2019-04-30T00:41:13.003Z,29.30
2019-04-30T00:42:18.714Z,29.70
2019-04-30T00:43:13.385Z,29.40
2019-04-30T00:44:15.156Z,29.50
2019-04-30T00:45:15.325Z,28.20
2019-04-30T00:46:17.315Z,28.70
2019-04-30T00:47:15.424Z,28.50
2019-04-30T00:48:19.401Z,29.10
2019-04-30T00:49:18.563Z,29.00
2019-04-30T00:50:14.998Z,30.10
2019-04-30T00:51:20.969Z,29.70
2019-04-30T00:52:15.456Z,28.00
2019-04-30T00:53:16.659Z,29.20
2019-04-30T00:54:17.689Z,29.80
2019-04-30T00:55:15.600Z,30.00
2019-04-30T00:56:19.662Z,29.00
2019-04-30T00:57:15.970Z,29.90
2019-04-30T00:58:19.692Z,29.80
2019-04-30T00:59:16.349Z,29.70
2019-04-30T01:00:19.631Z,31.60
2019-04-30T01:01:16.717Z,31.20
2019-04-30T01:02:19.969Z,30.50
2019-04-30T01:03:17.094Z,32.10
2019-04-30T01:04:19.340Z,31.50
2019-04-30T01:05:17.470Z,31.60
2019-04-30T01:06:24.650Z,31.50
2019-04-30T01:07:17.851Z,31.40
2019-04-30T01:08:21.203Z,30.80
2019-04-30T01:09:18.204Z,32.10
2019-04-30T01:10:19.655Z,30.50
2019-04-30T01:11:18.598Z,31.30
2019-04-30T01:12:25.306Z,32.80
2019-04-30T01:13:19.309Z,32.70
2019-04-30T01:14:23.135Z,32.10
2019-04-30T01:15:19.336Z,32.80
2019-04-30T01:16:19.623Z,31.90
2019-04-30T01:17:19.714Z,32.90
2019-04-30T01:18:23.618Z,31.50
2019-04-30T01:19:29.132Z,31.40
2019-04-30T01:20:24.019Z,32.00
2019-04-30T01:21:20.457Z,32.30
2019-04-30T01:22:27.871Z,32.60
2019-04-30T01:23:20.823Z,32.70
2019-04-30T01:24:23.513Z,31.70
2019-04-30T01:25:21.196Z,31.20
2019-04-30T01:26:22.860Z,30.60
2019-04-30T01:27:21.566Z,31.70
2019-04-30T01:28:24.193Z,31.10
2019-04-30T01:29:21.942Z,31.10
2019-04-30T01:30:22.838Z,30.90
2019-04-30T01:31:22.312Z,31.90
2019-04-30T01:32:22.494Z,30.60
2019-04-30T01:33:22.678Z,31.10
2019-04-30T01:34:22.871Z,31.50
2019-04-30T01:35:23.776Z,32.60
2019-04-30T01:36:23.242Z,31.80
2019-04-30T01:37:28.311Z,31.50
2019-04-30T01:38:23.610Z,31.20
2019-04-30T01:39:27.907Z,31.70
2019-04-30T01:40:23.982Z,33.20
2019-04-30T01:41:27.552Z,31.60
2019-04-30T01:42:24.346Z,32.80
2019-04-30T01:43:31.741Z,32.50
2019-04-30T01:44:24.713Z,30.90
2019-04-30T01:45:28.225Z,31.50
2019-04-30T01:46:25.083Z,31.70
2019-04-30T01:47:27.884Z,31.80
2019-04-30T01:48:25.448Z,34.10
2019-04-30T01:49:26.741Z,32.50
2019-04-30T01:50:25.815Z,31.00
2019-04-30T01:51:26.002Z,31.80
2019-04-30T01:52:29.252Z,31.60
2019-04-30T01:53:26.365Z,31.00
2019-04-30T01:54:26.555Z,32.90
2019-04-30T01:55:26.737Z,33.70
2019-04-30T01:56:28.829Z,32.80
2019-04-30T01:57:29.142Z,32.80
2019-04-30T01:58:29.966Z,31.60
2019-04-30T01:59:29.096Z,33.20
2019-04-30T02:00:29.313Z,31.70
2019-04-30T02:01:28.611Z,32.00
2019-04-30T02:02:28.643Z,32.70
2019-04-30T02:03:29.169Z,32.80
2019-04-30T02:04:28.992Z,33.30
2019-04-30T02:05:28.831Z,34.20
2019-04-30T02:06:29.462Z,32.20
2019-04-30T02:07:28.952Z,32.50
2019-04-30T02:08:29.511Z,33.90
2019-04-30T02:09:29.319Z,33.80
2019-04-30T02:10:29.506Z,32.90
2019-04-30T02:11:29.686Z,33.00
2019-04-30T02:12:29.873Z,34.20
2019-04-30T02:13:34.341Z,34.70
2019-04-30T02:14:30.246Z,33.70
2019-04-30T02:15:30.429Z,32.50
2019-04-30T02:16:30.619Z,33.00
2019-04-30T02:17:30.792Z,33.80
2019-04-30T02:18:30.975Z,33.90
2019-04-30T02:19:31.288Z,33.80
2019-04-30T02:20:31.345Z,33.50
2019-04-30T02:21:33.360Z,32.80
2019-04-30T02:22:31.713Z,34.70
2019-04-30T02:23:31.900Z,33.70
2019-04-30T02:24:32.107Z,33.70
2019-04-30T02:25:32.272Z,33.50
2019-04-30T02:26:32.456Z,31.80
2019-04-30T02:27:32.642Z,32.00
2019-04-30T02:28:32.836Z,32.10
2019-04-30T02:29:33.015Z,31.40
2019-04-30T02:30:33.204Z,32.40
2019-04-30T02:31:33.390Z,32.20
2019-04-30T02:32:33.568Z,32.40
2019-04-30T02:33:33.759Z,32.30
2019-04-30T02:34:33.937Z,30.50
2019-04-30T02:35:34.129Z,33.10
2019-04-30T02:36:34.313Z,32.90
2019-04-30T02:37:34.492Z,33.20
2019-04-30T02:38:34.675Z,32.40
2019-04-30T02:39:34.865Z,34.20
2019-04-30T02:40:35.051Z,32.80
2019-04-30T02:41:35.229Z,33.70
2019-04-30T02:42:35.419Z,33.90
2019-04-30T02:43:35.604Z,34.30
2019-04-30T02:44:35.791Z,33.40
2019-04-30T02:45:35.986Z,34.20
2019-04-30T02:46:36.166Z,33.30
2019-04-30T02:47:36.342Z,34.50
2019-04-30T02:48:39.382Z,34.10
2019-04-30T02:49:36.711Z,32.80
2019-04-30T02:50:39.208Z,34.00
2019-04-30T02:51:39.772Z,34.50
2019-04-30T02:52:37.258Z,36.20
2019-04-30T02:53:40.127Z,33.90
2019-04-30T02:54:39.656Z,33.70
2019-04-30T02:55:40.324Z,34.00
2019-04-30T02:56:40.017Z,36.00
2019-04-30T02:57:40.150Z,35.20
2019-04-30T02:58:40.934Z,34.90
2019-04-30T02:59:40.298Z,34.00
2019-04-30T03:00:39.351Z,35.50
2019-04-30T03:01:40.317Z,34.60
2019-04-30T03:02:39.555Z,33.90
2019-04-30T03:03:42.493Z,32.80
2019-04-30T03:04:39.654Z,35.10
2019-04-30T03:05:39.649Z,34.40
2019-04-30T03:06:40.465Z,34.50
2019-04-30T03:07:40.722Z,34.70
2019-04-30T03:08:40.502Z,34.20
2019-04-30T03:09:40.389Z,35.50
2019-04-30T03:10:40.596Z,33.60
2019-04-30T03:11:41.146Z,34.20
2019-04-30T03:12:40.960Z,33.30
2019-04-30T03:13:42.858Z,34.10
2019-04-30T03:14:41.313Z,34.30
2019-04-30T03:15:41.505Z,32.70
2019-04-30T03:16:41.691Z,34.90
2019-04-30T03:17:41.876Z,35.00
2019-04-30T03:18:42.055Z,31.40
2019-04-30T03:19:42.237Z,33.60
2019-04-30T03:20:42.417Z,34.10
2019-04-30T03:21:42.608Z,33.30
2019-04-30T03:22:42.795Z,33.60
2019-04-30T03:23:42.973Z,32.00
2019-04-30T03:24:43.221Z,32.10
2019-04-30T03:25:43.347Z,32.90
2019-04-30T03:26:43.538Z,30.90
2019-04-30T03:27:43.719Z,31.80
2019-04-30T03:28:43.905Z,32.60
2019-04-30T03:29:44.092Z,31.20
2019-04-30T03:30:44.278Z,33.40
2019-04-30T03:31:45.589Z,33.30
2019-04-30T03:32:50.787Z,31.30
2019-04-30T03:33:44.815Z,30.90
2019-04-30T03:34:45.012Z,31.20
2019-04-30T03:35:47.808Z,32.90
2019-04-30T03:36:45.367Z,30.20
2019-04-30T03:37:45.545Z,31.20
2019-04-30T03:38:45.742Z,31.70
2019-04-30T03:39:45.926Z,32.30
2019-04-30T03:40:46.108Z,32.20
2019-04-30T03:41:46.291Z,30.20
2019-04-30T03:42:49.288Z,30.90
2019-04-30T03:43:46.672Z,31.40
2019-04-30T03:44:49.423Z,32.00
2019-04-30T03:45:49.727Z,30.90
2019-04-30T03:46:49.806Z,31.20
2019-04-30T03:47:50.233Z,30.90
2019-04-30T03:48:50.185Z,30.20
2019-04-30T03:49:49.934Z,30.40
2019-04-30T03:50:53.406Z,31.60
2019-04-30T03:51:49.890Z,32.70
2019-04-30T03:52:50.403Z,30.50
2019-04-30T03:53:50.102Z,31.50
2019-04-30T03:54:49.429Z,31.00
2019-04-30T03:55:50.532Z,31.20
2019-04-30T03:56:50.251Z,31.50
2019-04-30T03:57:51.978Z,32.60
2019-04-30T03:58:50.323Z,33.90
2019-04-30T03:59:50.072Z,31.30
2019-04-30T04:00:50.303Z,31.80
2019-04-30T04:01:50.038Z,30.90
2019-04-30T04:02:50.360Z,31.10
2019-04-30T04:03:50.336Z,30.30
2019-04-30T04:04:52.654Z,31.20
2019-04-30T04:05:50.710Z,31.90
2019-04-30T04:06:50.897Z,30.70
2019-04-30T04:07:53.143Z,29.90
2019-04-30T04:08:51.267Z,31.20
2019-04-30T04:09:51.448Z,30.90
2019-04-30T04:10:53.008Z,31.40
2019-04-30T04:11:51.823Z,31.20
2019-04-30T04:12:52.003Z,31.30
2019-04-30T04:13:52.195Z,31.30
2019-04-30T04:14:52.376Z,31.60
2019-04-30T04:15:52.578Z,30.00
2019-04-30T04:16:52.737Z,30.10
2019-04-30T04:17:52.926Z,30.60
2019-04-30T04:18:53.112Z,28.80
2019-04-30T04:19:53.295Z,29.80
2019-04-30T04:21:07.455Z,28.40
2019-04-30T04:21:53.661Z,28.80
2019-04-30T04:22:53.843Z,29.00
2019-04-30T04:23:54.028Z,30.10
2019-04-30T04:24:54.226Z,29.50
2019-04-30T04:25:54.398Z,28.80
2019-04-30T04:26:54.585Z,29.00
2019-04-30T04:27:54.767Z,28.50
2019-04-30T04:28:54.951Z,29.10
2019-04-30T04:29:55.123Z,28.70
2019-04-30T04:30:55.323Z,28.50
2019-04-30T04:31:55.503Z,29.70
2019-04-30T04:32:55.699Z,31.10
2019-04-30T04:33:55.881Z,28.80
2019-04-30T04:34:56.077Z,28.30
2019-04-30T04:35:56.254Z,29.90
2019-04-30T04:36:56.443Z,28.70
2019-04-30T04:37:56.621Z,28.80
2019-04-30T04:38:56.812Z,28.60
2019-04-30T04:39:59.329Z,29.40
2019-04-30T04:41:02.615Z,29.20
2019-04-30T04:41:59.785Z,28.20
2019-04-30T04:43:00.072Z,28.00
2019-04-30T04:44:00.130Z,28.20
2019-04-30T04:44:59.571Z,27.60
2019-04-30T04:45:59.475Z,28.80
2019-04-30T04:47:00.151Z,28.30
2019-04-30T04:48:00.017Z,26.30
2019-04-30T04:48:59.626Z,25.10
2019-04-30T04:50:00.657Z,26.80
2019-04-30T04:51:00.057Z,27.80
2019-04-30T04:51:59.351Z,26.70
2019-04-30T04:52:59.609Z,26.60
2019-04-30T04:54:00.111Z,27.30
2019-04-30T04:55:00.546Z,26.60
2019-04-30T04:56:00.123Z,25.90
2019-04-30T04:57:14.000Z,25.40
2019-04-30T04:58:00.357Z,26.40
2019-04-30T04:59:00.545Z,26.10
2019-04-30T05:00:07.110Z,25.60
2019-04-30T05:01:00.921Z,25.20
2019-04-30T05:02:01.111Z,25.00
2019-04-30T05:03:01.346Z,24.50
2019-04-30T05:04:01.480Z,24.60
2019-04-30T05:05:01.670Z,24.10
2019-04-30T05:06:02.694Z,23.50
2019-04-30T05:07:02.051Z,24.10
2019-04-30T05:08:02.229Z,24.30
2019-04-30T05:09:02.442Z,24.50
2019-04-30T05:10:02.604Z,23.80
2019-04-30T05:11:02.804Z,23.80
2019-04-30T05:12:02.985Z,23.60
2019-04-30T05:13:03.185Z,23.50
2019-04-30T05:14:03.358Z,23.10
2019-04-30T05:15:03.562Z,22.80
2019-04-30T05:16:03.764Z,23.30
2019-04-30T05:17:03.941Z,23.70
2019-04-30T05:18:04.141Z,22.80
2019-04-30T05:19:04.328Z,23.20
2019-04-30T05:20:04.515Z,22.90
2019-04-30T05:21:04.716Z,23.30
2019-04-30T05:22:04.894Z,22.90
2019-04-30T05:23:05.085Z,21.90
2019-04-30T05:24:05.266Z,23.20
2019-04-30T05:25:05.465Z,22.50
2019-04-30T05:26:05.665Z,22.80
2019-04-30T05:27:05.859Z,23.60
2019-04-30T05:28:06.069Z,22.70
2019-04-30T05:29:06.280Z,22.70
2019-04-30T05:30:06.470Z,22.20
2019-04-30T05:31:08.671Z,21.30
2019-04-30T05:32:06.854Z,21.70
2019-04-30T05:33:08.719Z,22.00
2019-04-30T05:34:10.071Z,21.50
2019-04-30T05:35:09.381Z,21.90
2019-04-30T05:36:09.249Z,22.10
2019-04-30T05:37:09.038Z,22.10
2019-04-30T05:38:09.285Z,21.50
2019-04-30T05:39:08.691Z,21.20
2019-04-30T05:40:09.217Z,21.20
2019-04-30T05:41:09.345Z,21.20
2019-04-30T05:42:08.872Z,20.80
2019-04-30T05:43:11.231Z,20.80
2019-04-30T05:44:09.255Z,20.20
2019-04-30T05:45:09.605Z,20.80
2019-04-30T05:46:11.038Z,20.80
2019-04-30T05:47:09.787Z,20.10
2019-04-30T05:48:09.979Z,19.70
2019-04-30T05:49:10.182Z,20.60
2019-04-30T05:50:10.381Z,19.40
2019-04-30T05:51:10.576Z,19.90
2019-04-30T05:52:11.647Z,19.60
2019-04-30T05:53:10.974Z,19.40
2019-04-30T05:54:11.168Z,19.20
2019-04-30T05:55:11.367Z,19.30
2019-04-30T05:56:11.562Z,18.90
2019-04-30T05:57:11.772Z,19.20
2019-04-30T05:58:11.966Z,18.40
2019-04-30T05:59:12.174Z,18.60
2019-04-30T06:00:12.379Z,17.40
2019-04-30T06:01:12.577Z,18.10
2019-04-30T06:02:12.770Z,17.80
2019-04-30T06:03:24.950Z,18.00
2019-04-30T06:04:13.153Z,17.40
2019-04-30T06:05:13.355Z,18.30
2019-04-30T06:06:13.550Z,17.00
2019-04-30T06:07:13.746Z,17.50
2019-04-30T06:08:13.938Z,17.10
2019-04-30T06:09:22.567Z,17.00
2019-04-30T06:10:14.329Z,16.50
2019-04-30T06:11:14.525Z,16.30
2019-04-30T06:12:14.720Z,15.10
2019-04-30T06:13:14.922Z,16.40
2019-04-30T06:14:15.120Z,16.00
2019-04-30T06:15:15.314Z,15.30
2019-04-30T06:16:15.518Z,16.20
2019-04-30T06:17:15.717Z,15.60
2019-04-30T06:18:15.914Z,15.70
2019-04-30T06:19:16.110Z,14.70
2019-04-30T06:20:19.184Z,15.10
2019-04-30T06:21:16.501Z,14.90
2019-04-30T06:22:16.697Z,15.30
2019-04-30T06:23:16.905Z,14.30
2019-04-30T06:24:18.767Z,14.80
2019-04-30T06:25:30.566Z,13.90
2019-04-30T06:26:20.465Z,14.00
2019-04-30T06:27:19.147Z,14.40
2019-04-30T06:28:19.505Z,13.50
2019-04-30T06:29:18.981Z,13.40
2019-04-30T06:30:19.815Z,14.00
2019-04-30T06:31:31.260Z,13.10
2019-04-30T06:32:18.842Z,13.00
2019-04-30T06:33:19.319Z,12.70
2019-04-30T06:34:19.785Z,12.80
2019-04-30T06:35:19.479Z,12.80
2019-04-30T06:36:19.503Z,12.80
2019-04-30T06:37:19.680Z,12.50
2019-04-30T06:38:19.875Z,12.30
2019-04-30T06:39:20.074Z,12.40
2019-04-30T06:40:20.274Z,11.90
2019-04-30T06:41:20.476Z,11.70
2019-04-30T06:42:20.680Z,11.60
2019-04-30T06:43:20.874Z,11.70
2019-04-30T06:44:21.074Z,11.60
2019-04-30T06:45:21.273Z,10.90
2019-04-30T06:46:21.470Z,10.60
2019-04-30T06:47:32.333Z,11.60
2019-04-30T06:48:21.871Z,10.60
2019-04-30T06:49:22.070Z,11.40
2019-04-30T06:50:22.272Z,11.50
2019-04-30T06:51:22.464Z,10.90
2019-04-30T06:52:23.697Z,10.80
2019-04-30T06:53:22.862Z,10.30
2019-04-30T06:54:23.061Z,10.80
2019-04-30T06:55:23.282Z,9.70
2019-04-30T06:56:23.454Z,9.60
2019-04-30T06:57:23.654Z,9.60
2019-04-30T06:58:23.844Z,9.60
2019-04-30T06:59:24.042Z,9.60
2019-04-30T07:00:32.914Z,10.30
2019-04-30T07:01:24.442Z,9.20
2019-04-30T07:02:24.642Z,9.50
2019-04-30T07:03:24.842Z,8.90
2019-04-30T07:04:25.041Z,8.80
2019-04-30T07:05:25.236Z,8.40
2019-04-30T07:06:29.848Z,9.40
2019-04-30T07:07:36.279Z,8.80
2019-04-30T07:08:36.297Z,8.80
2019-04-30T07:09:26.712Z,8.30
2019-04-30T07:10:26.233Z,8.80
2019-04-30T07:11:26.441Z,8.20
2019-04-30T07:12:29.876Z,8.50
2019-04-30T07:13:26.849Z,8.00
2019-04-30T07:14:27.055Z,9.00
2019-04-30T07:15:27.253Z,9.00
2019-04-30T07:16:29.666Z,8.60
2019-04-30T07:17:29.222Z,8.30
2019-04-30T07:18:28.878Z,8.50
2019-04-30T07:19:34.609Z,8.30
2019-04-30T07:20:29.158Z,8.10
2019-04-30T07:21:31.199Z,8.10
2019-04-30T07:22:39.492Z,7.80
2019-04-30T07:23:28.849Z,8.60
2019-04-30T07:24:29.594Z,7.90
2019-04-30T07:25:29.420Z,8.10
2019-04-30T07:26:29.463Z,8.10
2019-04-30T07:27:31.929Z,7.80
2019-04-30T07:28:43.263Z,7.50
2019-04-30T07:29:30.060Z,7.60
2019-04-30T07:30:30.927Z,7.20
2019-04-30T07:31:30.473Z,7.40
2019-04-30T07:32:30.688Z,7.20
2019-04-30T07:33:30.875Z,7.40
2019-04-30T07:34:36.567Z,7.00
2019-04-30T07:35:31.277Z,7.40
2019-04-30T07:36:45.334Z,7.30
2019-04-30T07:37:31.675Z,7.30
2019-04-30T07:38:35.841Z,7.10
2019-04-30T07:39:33.508Z,7.00
2019-04-30T07:40:32.283Z,7.10
2019-04-30T07:41:32.489Z,7.10
2019-04-30T07:42:36.980Z,6.90
2019-04-30T07:43:32.886Z,6.40
2019-04-30T07:44:36.519Z,6.90
2019-04-30T07:45:33.333Z,6.70
2019-04-30T07:46:35.370Z,6.80
2019-04-30T07:47:33.695Z,7.20
2019-04-30T07:48:33.894Z,6.90
2019-04-30T07:49:47.003Z,6.40
2019-04-30T07:50:34.832Z,7.00
2019-04-30T07:51:37.867Z,6.60
2019-04-30T07:52:35.519Z,6.80
2019-04-30T07:53:34.924Z,6.60
2019-04-30T07:54:35.126Z,6.30
2019-04-30T07:55:35.324Z,6.80
2019-04-30T07:56:40.867Z,6.50
2019-04-30T07:57:35.724Z,6.20
2019-04-30T07:58:35.933Z,6.30
2019-04-30T07:59:36.133Z,6.20
2019-04-30T08:00:36.334Z,6.40
2019-04-30T08:01:36.537Z,6.40
2019-04-30T08:02:40.877Z,6.60
2019-04-30T08:03:39.232Z,6.30
2019-04-30T08:04:37.141Z,5.90
2019-04-30T08:05:40.078Z,5.80
2019-04-30T08:06:39.533Z,6.40
2019-04-30T08:07:39.164Z,5.60
2019-04-30T08:08:40.548Z,5.70
2019-04-30T08:09:41.540Z,5.50
2019-04-30T08:10:39.382Z,5.80
2019-04-30T08:11:41.910Z,6.00
2019-04-30T08:12:42.727Z,5.70
2019-04-30T08:13:40.756Z,5.50
2019-04-30T08:14:39.184Z,5.90
2019-04-30T08:15:42.148Z,5.60
2019-04-30T08:16:39.589Z,5.20
2019-04-30T08:17:39.794Z,5.50
2019-04-30T08:18:39.988Z,5.20
2019-04-30T08:19:41.136Z,5.50
2019-04-30T08:20:40.395Z,5.80
2019-04-30T08:21:40.598Z,5.50
2019-04-30T08:22:41.098Z,5.10
2019-04-30T08:23:40.999Z,5.60
2019-04-30T08:24:41.196Z,5.00
2019-04-30T08:25:41.401Z,5.20
2019-04-30T08:26:41.601Z,4.90
2019-04-30T08:27:41.808Z,4.70
2019-04-30T08:28:42.020Z,5.10
2019-04-30T08:29:42.219Z,5.20
2019-04-30T08:30:42.421Z,5.10
2019-04-30T08:31:42.621Z,4.60
2019-04-30T08:32:42.819Z,4.70
2019-04-30T08:33:43.022Z,5.30
2019-04-30T08:34:43.225Z,4.80
2019-04-30T08:35:43.428Z,4.40
2019-04-30T08:36:43.636Z,5.10
2019-04-30T08:37:43.840Z,4.60
2019-04-30T08:38:44.037Z,4.80
2019-04-30T08:39:44.241Z,4.60
2019-04-30T08:40:55.881Z,4.70
2019-04-30T08:41:44.645Z,4.70
2019-04-30T08:42:44.845Z,4.80
2019-04-30T08:43:45.049Z,4.70
2019-04-30T08:44:45.248Z,4.60
2019-04-30T08:45:45.453Z,4.80
2019-04-30T08:46:45.658Z,4.30
2019-04-30T08:47:45.858Z,4.20
2019-04-30T08:48:50.816Z,4.20
2019-04-30T08:49:46.403Z,3.90
2019-04-30T08:50:46.569Z,3.80
2019-04-30T08:51:48.846Z,4.20
2019-04-30T08:52:46.871Z,4.20
2019-04-30T08:53:48.661Z,4.20
2019-04-30T08:54:49.436Z,4.20
2019-04-30T08:55:49.207Z,4.40
2019-04-30T08:56:47.696Z,4.10
2019-04-30T08:57:49.856Z,3.40
2019-04-30T08:58:49.055Z,3.70
2019-04-30T08:59:49.481Z,3.80
2019-04-30T09:00:48.654Z,4.10
2019-04-30T09:01:48.798Z,3.90
2019-04-30T09:02:49.290Z,3.90
2019-04-30T09:03:51.214Z,3.80
2019-04-30T09:04:49.495Z,3.70
2019-04-30T09:05:49.982Z,3.30
2019-04-30T09:06:49.782Z,3.70
2019-04-30T09:07:49.902Z,3.90
2019-04-30T09:08:50.103Z,3.70
2019-04-30T09:09:50.302Z,3.60
2019-04-30T09:10:50.508Z,3.30
2019-04-30T09:11:55.416Z,3.30
2019-04-30T09:12:51.945Z,3.70
2019-04-30T09:13:51.123Z,3.30
2019-04-30T09:14:51.322Z,3.20
2019-04-30T09:15:51.524Z,3.40
2019-04-30T09:16:51.761Z,3.20
2019-04-30T09:18:00.757Z,2.90
2019-04-30T09:18:52.128Z,3.10
2019-04-30T09:19:52.331Z,2.90
2019-04-30T09:20:52.525Z,3.10
2019-04-30T09:21:52.733Z,3.00
2019-04-30T09:22:52.931Z,3.40
2019-04-30T09:23:53.132Z,3.20
2019-04-30T09:24:53.335Z,3.30
2019-04-30T09:25:53.535Z,3.10
2019-04-30T09:26:53.741Z,2.80
2019-04-30T09:27:53.942Z,2.40
2019-04-30T09:28:54.142Z,3.10
2019-04-30T09:29:54.345Z,3.00
2019-04-30T09:30:54.549Z,2.90
2019-04-30T09:31:54.747Z,3.10
2019-04-30T09:32:54.945Z,3.20
2019-04-30T09:33:57.876Z,3.50
2019-04-30T09:34:55.348Z,3.50
2019-04-30T09:35:55.555Z,3.00
2019-04-30T09:36:56.041Z,2.90
2019-04-30T09:38:01.147Z,2.80
2019-04-30T09:38:56.194Z,2.90
2019-04-30T09:39:56.395Z,2.90
2019-04-30T09:40:56.601Z,2.90
2019-04-30T09:41:56.799Z,2.90
2019-04-30T09:42:58.552Z,2.80
2019-04-30T09:43:57.204Z,2.70
2019-04-30T09:44:59.637Z,2.90
2019-04-30T09:45:59.289Z,3.10
2019-04-30T09:46:58.832Z,3.10
2019-04-30T09:47:59.259Z,3.20
2019-04-30T09:48:59.728Z,2.80
2019-04-30T09:49:59.680Z,3.10
2019-04-30T09:51:00.823Z,3.00
2019-04-30T09:51:59.498Z,3.00
2019-04-30T09:53:00.221Z,2.90
2019-04-30T09:54:02.245Z,2.80
2019-04-30T09:54:59.869Z,3.00
2019-04-30T09:55:59.752Z,2.70
2019-04-30T09:56:59.816Z,3.30
2019-04-30T09:58:00.019Z,3.20
2019-04-30T09:59:00.217Z,3.10
2019-04-30T10:00:00.646Z,3.00
2019-04-30T10:01:00.626Z,3.00
2019-04-30T10:02:00.821Z,3.00
2019-04-30T10:03:01.251Z,3.00
2019-04-30T10:04:01.625Z,3.00
2019-04-30T10:05:01.839Z,2.90
2019-04-30T10:06:01.621Z,3.40
2019-04-30T10:07:01.823Z,3.30
2019-04-30T10:08:02.020Z,3.20
2019-04-30T10:09:02.225Z,3.40
2019-04-30T10:10:02.429Z,3.10
2019-04-30T10:11:02.624Z,3.10
2019-04-30T10:12:02.825Z,3.20
2019-04-30T10:13:03.033Z,3.10
2019-04-30T10:14:03.232Z,2.60
2019-04-30T10:15:03.435Z,3.00
2019-04-30T10:16:03.635Z,3.00
2019-04-30T10:17:03.834Z,3.10
2019-04-30T10:18:04.054Z,3.50
2019-04-30T10:19:04.255Z,3.10
2019-04-30T10:20:04.450Z,2.90
2019-04-30T10:21:04.653Z,3.60
2019-04-30T10:22:04.858Z,3.20
2019-04-30T10:23:05.065Z,3.10
2019-04-30T10:24:14.756Z,3.40
2019-04-30T10:25:05.467Z,3.20
2019-04-30T10:26:05.676Z,3.10
2019-04-30T10:27:10.502Z,3.60
2019-04-30T10:28:06.078Z,3.10
2019-04-30T10:29:06.295Z,3.10
2019-04-30T10:30:06.465Z,3.40
2019-04-30T10:31:06.670Z,3.50
2019-04-30T10:32:08.717Z,3.20
2019-04-30T10:33:07.068Z,3.40
2019-04-30T10:34:07.266Z,3.40
2019-04-30T10:35:07.462Z,3.00
2019-04-30T10:36:09.353Z,3.10
2019-04-30T10:37:08.997Z,3.30
2019-04-30T10:38:09.859Z,3.50
2019-04-30T10:39:08.292Z,3.20
2019-04-30T10:40:10.281Z,3.60
2019-04-30T10:41:08.938Z,3.60
2019-04-30T10:42:08.883Z,3.40
2019-04-30T10:43:09.218Z,3.60
2019-04-30T10:44:09.294Z,3.50
2019-04-30T10:45:09.957Z,3.80
2019-04-30T10:46:09.869Z,3.80
2019-04-30T10:47:09.892Z,3.90
2019-04-30T10:48:10.096Z,4.10
2019-04-30T10:49:10.313Z,4.00
2019-04-30T10:50:10.493Z,4.10
2019-04-30T10:51:10.701Z,3.50
2019-04-30T10:52:10.906Z,3.80
2019-04-30T10:53:12.508Z,3.80
2019-04-30T10:54:23.231Z,3.90
2019-04-30T10:55:11.519Z,4.20
2019-04-30T10:56:11.810Z,3.90
2019-04-30T10:57:11.918Z,4.30
2019-04-30T10:58:12.125Z,4.00
2019-04-30T10:59:12.327Z,4.20
2019-04-30T11:00:12.530Z,4.50
2019-04-30T11:01:12.732Z,4.60
2019-04-30T11:02:12.924Z,4.00
2019-04-30T11:03:20.063Z,4.40
2019-04-30T11:04:13.335Z,4.20
2019-04-30T11:05:13.532Z,4.40
2019-04-30T11:06:13.731Z,4.20
2019-04-30T11:07:13.933Z,4.40
2019-04-30T11:08:14.125Z,4.70
2019-04-30T11:09:14.327Z,4.70
2019-04-30T11:10:14.518Z,5.00
2019-04-30T11:11:14.714Z,5.40
2019-04-30T11:12:14.910Z,4.90
2019-04-30T11:13:15.109Z,4.40
2019-04-30T11:14:15.311Z,4.70
2019-04-30T11:15:15.505Z,4.70
2019-04-30T11:16:15.790Z,4.60
2019-04-30T11:17:16.062Z,5.00
2019-04-30T11:18:16.307Z,5.00
2019-04-30T11:19:16.411Z,4.90
2019-04-30T11:20:16.659Z,4.30
2019-04-30T11:21:16.895Z,4.70
2019-04-30T11:22:17.077Z,5.10
2019-04-30T11:23:17.259Z,5.40
2019-04-30T11:24:19.297Z,4.90
2019-04-30T11:25:19.607Z,4.70
2019-04-30T11:26:18.363Z,4.60
2019-04-30T11:27:20.271Z,4.80
2019-04-30T11:28:18.497Z,4.50
2019-04-30T11:29:18.348Z,5.10
2019-04-30T11:30:23.598Z,4.80
2019-04-30T11:31:18.924Z,4.10
2019-04-30T11:32:19.009Z,4.80
2019-04-30T11:33:19.166Z,4.50
2019-04-30T11:34:19.218Z,5.10
2019-04-30T11:35:20.753Z,4.80
2019-04-30T11:36:19.621Z,4.60
2019-04-30T11:37:19.804Z,4.80
2019-04-30T11:38:20.522Z,4.80
2019-04-30T11:39:20.190Z,5.20
2019-04-30T11:40:31.231Z,5.20
2019-04-30T11:41:30.053Z,4.90
2019-04-30T11:42:20.807Z,5.00
2019-04-30T11:43:20.988Z,4.70
2019-04-30T11:44:30.326Z,4.50
2019-04-30T11:45:21.382Z,4.90
2019-04-30T11:46:21.573Z,4.40
2019-04-30T11:47:21.775Z,5.00
2019-04-30T11:48:21.968Z,4.20
2019-04-30T11:49:22.166Z,4.60
2019-04-30T11:50:22.366Z,4.50
2019-04-30T11:51:22.558Z,5.20
2019-04-30T11:52:22.750Z,4.70
2019-04-30T11:53:27.847Z,4.50
2019-04-30T11:54:23.134Z,5.30
2019-04-30T11:55:23.334Z,4.60
2019-04-30T11:56:23.530Z,4.60
2019-04-30T11:57:23.733Z,4.60
2019-04-30T11:58:23.935Z,5.30
2019-04-30T11:59:24.127Z,4.90
2019-04-30T12:00:24.317Z,4.40
2019-04-30T12:01:24.524Z,4.70
2019-04-30T12:02:24.725Z,4.40
2019-04-30T12:03:24.919Z,4.90
2019-04-30T12:04:25.119Z,4.70
2019-04-30T12:05:25.311Z,4.60
2019-04-30T12:06:25.506Z,5.00
2019-04-30T12:07:25.699Z,4.90
2019-04-30T12:08:26.565Z,4.80
2019-04-30T12:09:26.078Z,5.00
2019-04-30T12:10:26.270Z,4.90
2019-04-30T12:11:26.461Z,4.80
2019-04-30T12:12:26.662Z,4.70
2019-04-30T12:13:26.854Z,4.90
2019-04-30T12:14:27.052Z,5.00
2019-04-30T12:15:29.025Z,5.00
2019-04-30T12:16:28.557Z,5.30
2019-04-30T12:17:27.638Z,5.00
2019-04-30T12:18:27.838Z,5.30
2019-04-30T12:19:28.676Z,4.90
2019-04-30T12:20:28.234Z,5.10
2019-04-30T12:21:28.422Z,5.20
2019-04-30T12:22:29.652Z,4.90
2019-04-30T12:23:28.788Z,5.30
2019-04-30T12:24:30.421Z,5.60
2019-04-30T12:25:30.415Z,5.50
2019-04-30T12:26:29.386Z,5.20
2019-04-30T12:27:29.583Z,5.80
2019-04-30T12:28:29.831Z,5.30
2019-04-30T12:29:29.969Z,5.30
2019-04-30T12:30:30.158Z,5.10
2019-04-30T12:31:30.349Z,5.80
2019-04-30T12:32:30.542Z,6.10
2019-04-30T12:33:30.740Z,6.10
2019-04-30T12:34:30.938Z,5.90
2019-04-30T12:35:31.127Z,5.90
2019-04-30T12:36:31.316Z,5.20
2019-04-30T12:37:31.507Z,5.70
2019-04-30T12:38:31.699Z,5.90
2019-04-30T12:39:31.891Z,5.40
2019-04-30T12:40:32.463Z,5.50
2019-04-30T12:41:32.287Z,6.20
2019-04-30T12:42:32.476Z,6.20
2019-04-30T12:43:32.673Z,6.10
2019-04-30T12:44:32.868Z,6.10
2019-04-30T12:45:33.060Z,6.30
2019-04-30T12:46:33.251Z,6.30
2019-04-30T12:47:33.438Z,6.30
2019-04-30T12:48:33.633Z,6.20
2019-04-30T12:49:33.826Z,6.00
2019-04-30T12:50:34.021Z,5.60
2019-04-30T12:51:45.212Z,6.40
2019-04-30T12:52:34.403Z,6.30
2019-04-30T12:53:34.592Z,6.40
2019-04-30T12:54:34.786Z,6.10
2019-04-30T12:55:34.980Z,6.00
2019-04-30T12:56:35.185Z,6.30
2019-04-30T12:57:35.379Z,6.30
2019-04-30T12:58:35.569Z,5.70
2019-04-30T12:59:35.761Z,5.70
2019-04-30T13:00:35.957Z,6.50
2019-04-30T13:01:36.147Z,6.10
2019-04-30T13:02:36.335Z,5.90
2019-04-30T13:03:36.531Z,6.30
2019-04-30T13:04:36.728Z,5.70
2019-04-30T13:05:36.921Z,6.50
2019-04-30T13:06:37.661Z,5.90